createdAt,value
2023-01-12T00:01:46.945Z,17.35
2023-01-12T00:04:32.232Z,19.48
2023-01-12T00:07:18.174Z,21.90
2023-01-12T00:10:05.877Z,17.08
2023-01-12T00:12:51.265Z,17.52
2023-01-12T00:16:02.540Z,18.77
2023-01-12T00:18:48.532Z,22.85
2023-01-12T00:21:44.912Z,19.40
2023-01-12T00:24:36.273Z,16.95
2023-01-12T00:27:22.209Z,20.42
2023-01-12T00:30:09.121Z,18.50
2023-01-12T00:32:54.525Z,18.75
2023-01-12T00:35:40.288Z,15.48
2023-01-12T00:38:26.665Z,17.42
2023-01-12T00:41:32.486Z,16.85
2023-01-12T00:44:36.055Z,13.77
2023-01-12T00:47:21.754Z,19.00
2023-01-12T00:50:07.883Z,14.20
2023-01-12T00:52:53.474Z,17.27
2023-01-12T00:55:39.307Z,20.85
2023-01-12T00:58:25.056Z,15.60
2023-01-12T01:01:10.827Z,15.73
2023-01-12T01:03:56.390Z,17.20
2023-01-12T01:06:42.004Z,20.80
2023-01-12T01:09:28.222Z,21.98
2023-01-12T01:12:13.953Z,19.55
2023-01-12T01:14:59.561Z,22.05
2023-01-12T01:17:44.916Z,19.25
2023-01-12T01:20:34.533Z,22.02
2023-01-12T01:23:20.192Z,16.40
2023-01-12T01:26:07.657Z,23.92
2023-01-12T01:28:52.914Z,22.40
2023-01-12T01:31:38.596Z,15.38
2023-01-12T01:34:24.073Z,25.05
2023-01-12T01:37:09.805Z,24.83
2023-01-12T01:39:56.135Z,22.85
2023-01-12T01:42:41.634Z,26.75
2023-01-12T01:45:27.351Z,28.10
2023-01-12T01:48:16.361Z,23.58
2023-01-12T01:51:10.124Z,30.88
2023-01-12T01:53:55.703Z,32.33
2023-01-12T01:56:41.398Z,32.08
2023-01-12T01:59:31.289Z,25.67
2023-01-12T02:02:17.890Z,34.53
2023-01-12T02:05:03.904Z,30.80
2023-01-12T02:07:50.698Z,30.90
2023-01-12T02:10:36.905Z,27.70
2023-01-12T02:13:43.869Z,32.88
2023-01-12T02:16:32.413Z,21.30
2023-01-12T02:19:23.898Z,27.85
2023-01-12T02:22:28.307Z,25.58
2023-01-12T02:25:39.085Z,26.02
2023-01-12T02:29:05.033Z,24.92
2023-01-12T02:32:28.457Z,26.35
2023-01-12T02:35:26.409Z,32.28
2023-01-12T02:38:18.934Z,15.48
2023-01-12T02:41:08.426Z,24.40
2023-01-12T02:43:54.189Z,24.85
2023-01-12T02:46:41.470Z,22.98
2023-01-12T02:49:32.213Z,21.23
2023-01-12T02:52:21.626Z,15.70
2023-01-12T02:55:07.817Z,17.17
2023-01-12T02:57:54.949Z,16.40
2023-01-12T03:00:43.620Z,15.98
2023-01-12T03:03:30.125Z,16.52
2023-01-12T03:06:17.479Z,21.48
2023-01-12T03:09:02.985Z,22.10
2023-01-12T03:11:52.887Z,15.95
2023-01-12T03:14:42.183Z,16.02
2023-01-12T03:17:52.668Z,21.73
2023-01-12T03:20:44.303Z,20.83
2023-01-12T03:23:53.636Z,17.67
2023-01-12T03:26:43.667Z,12.82
2023-01-12T03:29:36.960Z,15.65
2023-01-12T03:32:23.019Z,12.93
2023-01-12T03:35:09.250Z,15.15
2023-01-12T03:38:00.108Z,14.18
2023-01-12T03:40:49.560Z,18.55
2023-01-12T03:43:43.074Z,12.90
2023-01-12T03:46:43.056Z,10.60
2023-01-12T03:49:34.673Z,9.68
2023-01-12T03:52:22.342Z,12.55
2023-01-12T03:55:10.804Z,8.73
2023-01-12T03:57:57.366Z,8.27
2023-01-12T04:00:43.812Z,10.65
2023-01-12T04:03:28.956Z,7.63
2023-01-12T04:06:14.520Z,7.05
2023-01-12T04:09:00.165Z,8.85
2023-01-12T04:12:04.277Z,8.15
2023-01-12T04:14:50.077Z,5.75
2023-01-12T04:17:35.657Z,7.43
2023-01-12T04:20:21.271Z,8.93
2023-01-12T04:23:07.210Z,7.75
2023-01-12T04:25:52.913Z,8.10
2023-01-12T04:28:38.559Z,6.20
2023-01-12T04:31:24.006Z,6.38
2023-01-12T04:34:09.738Z,5.20
2023-01-12T04:36:54.946Z,9.35
2023-01-12T04:39:40.506Z,7.00
2023-01-12T04:42:44.335Z,6.75
2023-01-12T04:45:32.016Z,7.80
2023-01-12T04:48:19.316Z,7.57
2023-01-12T04:51:05.582Z,5.47
2023-01-12T04:53:51.715Z,3.83
2023-01-12T04:56:37.190Z,7.30
2023-01-12T04:59:22.720Z,6.80
2023-01-12T05:02:08.295Z,5.78
2023-01-12T05:04:53.753Z,4.18
2023-01-12T05:07:59.473Z,4.50
2023-01-12T05:10:50.047Z,7.50
2023-01-12T05:13:35.757Z,5.20
2023-01-12T05:16:21.508Z,4.25
2023-01-12T05:19:06.945Z,3.55
2023-01-12T05:21:52.282Z,4.60
2023-01-12T05:24:37.868Z,4.28
2023-01-12T05:27:23.529Z,5.30
2023-01-12T05:30:09.734Z,4.72
2023-01-12T05:32:55.777Z,2.80
2023-01-12T05:35:41.384Z,5.40
2023-01-12T05:38:26.781Z,4.45
2023-01-12T05:41:14.607Z,5.15
2023-01-12T05:43:59.866Z,5.38
2023-01-12T05:46:45.545Z,6.07
2023-01-12T05:49:31.185Z,6.75
2023-01-12T05:52:17.149Z,7.53
2023-01-12T05:55:02.647Z,9.63
2023-01-12T05:57:48.194Z,12.65
2023-01-12T06:00:33.732Z,15.73
2023-01-12T06:03:19.349Z,12.57
2023-01-12T06:06:05.306Z,19.60
2023-01-12T06:08:52.723Z,16.17
2023-01-12T06:11:56.933Z,17.08
2023-01-12T06:14:42.623Z,20.60
2023-01-12T06:17:28.221Z,25.83
2023-01-12T06:20:17.095Z,26.65
2023-01-12T06:23:05.087Z,29.08
2023-01-12T06:25:50.365Z,34.20
2023-01-12T06:28:37.982Z,29.17
2023-01-12T06:31:23.532Z,32.47
2023-01-12T06:34:08.803Z,40.92
2023-01-12T06:36:54.271Z,39.20
2023-01-12T06:39:39.834Z,35.55
2023-01-12T06:42:28.654Z,49.00
2023-01-12T06:45:14.130Z,46.60
2023-01-12T06:47:59.928Z,41.80
2023-01-12T06:50:45.301Z,47.58
2023-01-12T06:53:31.004Z,53.28
2023-01-12T06:56:16.513Z,38.72
2023-01-12T06:59:02.173Z,50.65
2023-01-12T07:01:47.704Z,41.00
2023-01-12T07:04:32.903Z,40.85
2023-01-12T07:07:18.509Z,47.90
2023-01-12T07:10:04.844Z,42.95
2023-01-12T07:12:50.266Z,44.28
2023-01-12T07:15:35.726Z,45.35
2023-01-12T07:18:21.113Z,34.22
2023-01-12T07:21:09.015Z,49.50
2023-01-12T07:23:54.485Z,46.42
2023-01-12T07:26:40.048Z,38.33
2023-01-12T07:29:25.601Z,37.90
2023-01-12T07:32:10.998Z,39.70
2023-01-12T07:34:56.465Z,41.65
2023-01-12T07:37:53.783Z,36.08
2023-01-12T07:40:39.520Z,35.88
2023-01-12T07:43:25.333Z,32.63
2023-01-12T07:46:10.795Z,37.08
2023-01-12T07:48:56.224Z,41.88
2023-01-12T07:51:41.530Z,31.50
2023-01-12T07:54:27.140Z,35.75
2023-01-12T07:57:12.604Z,29.63
2023-01-12T07:59:58.019Z,30.40
2023-01-12T08:02:43.916Z,36.90
2023-01-12T08:05:29.296Z,31.15
2023-01-12T08:08:15.205Z,30.02
2023-01-12T08:11:10.280Z,28.70
2023-01-12T08:13:57.397Z,28.08
2023-01-12T08:16:45.829Z,28.05
2023-01-12T08:19:39.421Z,25.92
2023-01-12T08:22:30.807Z,27.35
2023-01-12T08:25:21.019Z,32.35
2023-01-12T08:28:08.151Z,27.50
2023-01-12T08:30:53.767Z,29.02
2023-01-12T08:33:38.907Z,24.73
2023-01-12T08:36:25.660Z,25.13
2023-01-12T08:39:11.297Z,28.48
2023-01-12T08:41:56.523Z,28.75
2023-01-12T08:44:42.492Z,30.45
2023-01-12T08:47:30.197Z,25.83
2023-01-12T08:50:15.673Z,30.23
2023-01-12T08:53:01.314Z,27.90
2023-01-12T08:55:55.686Z,27.50
2023-01-12T08:58:41.121Z,22.40
2023-01-12T09:01:27.432Z,31.23
2023-01-12T09:04:13.068Z,25.00
2023-01-12T09:07:00.104Z,27.00
2023-01-12T09:09:45.739Z,27.17
2023-01-12T09:12:31.337Z,27.85
2023-01-12T09:15:17.020Z,29.42
2023-01-12T09:18:02.403Z,23.63
2023-01-12T09:20:48.183Z,26.90
2023-01-12T09:23:34.299Z,29.60
2023-01-12T09:26:22.234Z,23.67
2023-01-12T09:29:07.954Z,26.88
2023-01-12T09:31:53.478Z,22.38
2023-01-12T09:34:39.101Z,25.13
2023-01-12T09:37:24.482Z,24.77
2023-01-12T09:40:14.516Z,23.95
2023-01-12T09:43:18.323Z,25.75
2023-01-12T09:46:39.444Z,22.45
2023-01-12T09:49:30.623Z,32.63
2023-01-12T09:52:27.700Z,28.95
2023-01-12T09:55:19.103Z,29.17
2023-01-12T09:58:19.269Z,31.00
2023-01-12T10:01:17.565Z,26.23
2023-01-12T10:04:14.510Z,25.80
2023-01-12T10:06:59.946Z,33.03
2023-01-12T10:09:46.057Z,28.63
2023-01-12T10:12:42.313Z,25.55
2023-01-12T10:15:40.389Z,27.10
2023-01-12T10:18:42.400Z,23.65
2023-01-12T10:21:30.841Z,30.10
2023-01-12T10:24:21.298Z,23.88
2023-01-12T10:27:10.861Z,25.05
2023-01-12T10:29:58.284Z,30.65
2023-01-12T10:32:43.883Z,20.25
2023-01-12T10:35:29.151Z,27.90
2023-01-12T10:38:25.297Z,25.02
2023-01-12T10:41:17.080Z,27.52
2023-01-12T10:44:13.304Z,26.13
2023-01-12T10:47:09.485Z,24.83
2023-01-12T10:50:20.730Z,27.02
2023-01-12T10:53:17.410Z,29.60
2023-01-12T10:56:26.715Z,25.75
2023-01-12T10:59:21.368Z,31.48
2023-01-12T11:02:07.027Z,29.13
2023-01-12T11:04:54.033Z,21.50
2023-01-12T11:07:49.621Z,26.85
2023-01-12T11:10:37.485Z,32.38
2023-01-12T11:13:36.674Z,29.00
2023-01-12T11:16:25.278Z,33.38
2023-01-12T11:19:18.853Z,22.50
2023-01-12T11:22:16.988Z,23.55
2023-01-12T11:25:17.473Z,25.98
2023-01-12T11:28:02.891Z,28.25
2023-01-12T11:31:00.639Z,26.52
2023-01-12T11:33:55.150Z,29.10
2023-01-12T11:36:44.562Z,23.63
2023-01-12T11:39:31.067Z,29.55
2023-01-12T11:42:40.389Z,32.03
2023-01-12T11:45:40.727Z,27.73
2023-01-12T11:48:33.707Z,26.15
2023-01-12T11:51:19.179Z,21.35
2023-01-12T11:54:07.361Z,21.70
2023-01-12T11:57:11.392Z,19.65
2023-01-12T12:00:08.870Z,33.17
2023-01-12T12:03:31.354Z,21.65
2023-01-12T12:06:37.595Z,22.50
2023-01-12T12:09:56.779Z,26.80
2023-01-12T12:12:59.856Z,21.23
2023-01-12T12:15:59.055Z,16.00
2023-01-12T12:19:10.698Z,23.83
2023-01-12T12:22:35.371Z,21.98
2023-01-12T12:25:37.308Z,20.27
2023-01-12T12:29:16.658Z,25.00
2023-01-12T12:32:30.316Z,21.58
2023-01-12T12:35:46.677Z,20.73
2023-01-12T12:38:42.835Z,20.92
2023-01-12T12:42:21.169Z,15.60
2023-01-12T12:45:29.845Z,19.65
2023-01-12T12:48:21.205Z,19.08
2023-01-12T12:51:09.086Z,15.70
2023-01-12T12:53:55.606Z,17.50
2023-01-12T12:56:41.848Z,20.33
2023-01-12T12:59:33.372Z,21.70
2023-01-12T13:02:53.222Z,15.97
2023-01-12T13:05:47.577Z,17.83
2023-01-12T13:08:35.706Z,13.80
2023-01-12T13:11:50.174Z,19.00
2023-01-12T13:14:41.587Z,13.18
2023-01-12T13:17:27.052Z,15.98
2023-01-12T13:20:24.472Z,13.00
2023-01-12T13:23:43.226Z,9.98
2023-01-12T13:26:35.132Z,14.80
2023-01-12T13:29:23.762Z,10.90
2023-01-12T13:32:35.971Z,12.75
2023-01-12T13:35:33.747Z,12.65
2023-01-12T13:38:38.651Z,10.90
2023-01-12T13:41:47.423Z,10.45
2023-01-12T13:44:40.095Z,10.82
2023-01-12T13:50:17.675Z,7.55
2023-01-12T13:53:04.248Z,5.47
2023-01-12T13:56:04.666Z,8.20
2023-01-12T13:58:50.817Z,7.72
2023-01-12T14:01:39.218Z,4.35
2023-01-12T14:04:53.539Z,6.65
2023-01-12T14:07:58.211Z,6.75
2023-01-12T14:10:56.509Z,3.92
2023-01-12T14:14:23.001Z,3.95
2023-01-12T14:17:35.405Z,4.55
2023-01-12T14:20:26.613Z,4.63
2023-01-12T14:23:26.237Z,5.03
2023-01-12T14:26:14.477Z,5.63
2023-01-12T14:29:00.159Z,9.45
2023-01-12T14:31:51.958Z,5.28
2023-01-12T14:34:37.719Z,6.13
2023-01-12T14:37:30.124Z,5.18
2023-01-12T14:40:25.662Z,6.13
2023-01-12T14:43:47.598Z,7.07
2023-01-12T14:46:38.248Z,8.63
2023-01-12T14:49:33.261Z,8.10
2023-01-12T14:52:30.413Z,8.35
2023-01-12T14:55:25.109Z,8.57
2023-01-12T14:58:20.552Z,5.95
2023-01-12T15:01:06.042Z,5.13
2023-01-12T15:03:53.386Z,6.50
2023-01-12T15:06:41.036Z,7.18
2023-01-12T15:09:29.274Z,5.70
2023-01-12T15:12:30.899Z,8.80
2023-01-12T15:15:17.467Z,3.83
2023-01-12T15:18:21.237Z,6.20
2023-01-12T15:21:24.776Z,2.42
2023-01-12T15:24:46.613Z,5.28
2023-01-12T15:27:32.138Z,6.25
2023-01-12T15:30:17.839Z,3.30
2023-01-12T15:33:03.215Z,3.05
2023-01-12T15:35:48.363Z,3.83
2023-01-12T15:38:33.992Z,2.60
2023-01-12T15:41:43.272Z,3.47
2023-01-12T15:44:28.945Z,4.00
2023-01-12T15:47:15.903Z,3.97
2023-01-12T15:50:01.391Z,3.25
2023-01-12T15:52:48.550Z,4.63
2023-01-12T15:55:35.932Z,5.13
2023-01-12T15:58:21.247Z,3.03
2023-01-12T16:01:10.556Z,4.22
2023-01-12T16:04:25.050Z,3.83
2023-01-12T16:07:01.156Z,3.00
2023-01-12T16:09:47.791Z,5.13
2023-01-12T16:12:33.289Z,4.15
2023-01-12T16:15:24.075Z,2.85
2023-01-12T16:18:10.263Z,4.72
2023-01-12T16:20:59.276Z,3.30
2023-01-12T16:23:45.697Z,5.80
2023-01-12T16:26:31.410Z,8.00
2023-01-12T16:29:17.661Z,3.45
2023-01-12T16:32:03.761Z,3.53
2023-01-12T16:34:49.383Z,5.25
2023-01-12T16:37:35.629Z,4.35
2023-01-12T16:40:21.144Z,6.22
2023-01-12T16:43:06.469Z,3.03
2023-01-12T16:45:52.224Z,6.50
2023-01-12T16:48:39.423Z,6.53
2023-01-12T16:51:25.665Z,6.05
2023-01-12T16:54:11.182Z,8.75
2023-01-12T16:56:56.531Z,5.88
2023-01-12T16:59:42.969Z,4.78
2023-01-12T17:02:31.347Z,6.78
2023-01-12T17:05:17.153Z,5.68
2023-01-12T17:08:02.868Z,10.32
2023-01-12T17:10:48.255Z,7.80
2023-01-12T17:13:34.188Z,9.75
2023-01-12T17:16:19.709Z,9.75
2023-01-12T17:19:05.052Z,9.35
2023-01-12T17:21:51.104Z,8.93
2023-01-12T17:24:42.694Z,11.20
2023-01-12T17:27:28.053Z,8.85
2023-01-12T17:30:13.927Z,8.85
2023-01-12T17:32:59.835Z,12.70
2023-01-12T17:35:45.124Z,9.35
2023-01-12T17:38:31.833Z,17.48
2023-01-12T17:41:36.634Z,8.35
2023-01-12T17:44:22.010Z,12.52
2023-01-12T17:47:07.687Z,11.35
2023-01-12T17:49:56.321Z,15.38
2023-01-12T17:52:41.676Z,15.88
2023-01-12T17:55:27.872Z,13.63
2023-01-12T17:58:13.110Z,10.57
2023-01-12T18:00:58.610Z,9.00
2023-01-12T18:03:44.080Z,10.65
2023-01-12T18:06:29.525Z,14.23
2023-01-12T18:09:15.323Z,14.50
2023-01-12T18:12:00.465Z,8.55
2023-01-12T18:14:46.371Z,18.88
2023-01-12T18:17:32.343Z,18.35
2023-01-12T18:20:17.478Z,13.57
2023-01-12T18:23:02.952Z,15.52
2023-01-12T18:25:48.325Z,15.93
2023-01-12T18:28:33.873Z,16.00
2023-01-12T18:31:22.681Z,15.18
2023-01-12T18:34:08.433Z,16.23
2023-01-12T18:36:53.726Z,17.70
2023-01-12T18:39:41.395Z,16.67
2023-01-12T18:42:45.257Z,18.65
2023-01-12T18:45:30.697Z,13.57
2023-01-12T18:48:23.620Z,14.00
2023-01-12T18:51:27.402Z,14.85
2023-01-12T18:54:12.705Z,12.90
2023-01-12T18:56:58.005Z,13.60
2023-01-12T18:59:44.080Z,12.52
2023-01-12T19:02:30.030Z,13.77
2023-01-12T19:05:20.727Z,11.00
2023-01-12T19:08:25.898Z,15.88
2023-01-12T19:11:13.603Z,12.57
2023-01-12T19:14:17.447Z,12.77
2023-01-12T19:17:21.304Z,11.15
2023-01-12T19:20:09.161Z,11.55
2023-01-12T19:23:12.857Z,17.08
2023-01-12T19:26:31.512Z,15.00
2023-01-12T19:29:16.742Z,12.52
2023-01-12T19:32:02.470Z,13.30
2023-01-12T19:34:49.213Z,8.55
2023-01-12T19:37:35.935Z,8.00
2023-01-12T19:40:43.802Z,11.48
2023-01-12T19:43:30.685Z,12.13
2023-01-12T19:46:16.096Z,10.65
2023-01-12T19:49:01.942Z,8.20
2023-01-12T19:51:47.384Z,8.50
2023-01-12T19:54:32.765Z,7.68
2023-01-12T19:57:19.853Z,10.00
2023-01-12T20:00:08.716Z,9.43
2023-01-12T20:03:00.394Z,12.90
2023-01-12T20:05:47.575Z,10.32
2023-01-12T20:08:33.267Z,9.07
2023-01-12T20:11:18.529Z,13.07
2023-01-12T20:14:04.036Z,11.32
2023-01-12T20:16:49.655Z,14.50
2023-01-12T20:19:35.233Z,9.73
2023-01-12T20:22:21.125Z,10.50
2023-01-12T20:25:07.507Z,14.68
2023-01-12T20:27:53.171Z,8.77
2023-01-12T20:30:40.960Z,12.60
2023-01-12T20:33:26.284Z,10.00
2023-01-12T20:36:14.084Z,10.60
2023-01-12T20:39:00.120Z,10.02
2023-01-12T20:41:45.793Z,11.82
2023-01-12T20:44:31.673Z,6.78
2023-01-12T20:47:19.346Z,9.18
2023-01-12T20:50:07.763Z,8.10
2023-01-12T20:52:54.302Z,10.95
2023-01-12T20:55:49.040Z,11.93
2023-01-12T20:58:34.986Z,6.20
2023-01-12T21:01:20.574Z,10.65
2023-01-12T21:04:06.466Z,8.63
2023-01-12T21:06:51.893Z,11.90
2023-01-12T21:09:37.559Z,7.97
2023-01-12T21:12:22.919Z,7.25
2023-01-12T21:15:09.242Z,12.80
2023-01-12T21:17:54.557Z,13.20
2023-01-12T21:20:43.939Z,9.45
2023-01-12T21:23:29.767Z,11.40
2023-01-12T21:26:16.053Z,16.70
2023-01-12T21:29:01.871Z,12.40
2023-01-12T21:31:47.884Z,15.82
2023-01-12T21:34:33.216Z,13.95
2023-01-12T21:37:19.590Z,18.85
2023-01-12T21:40:05.352Z,19.55
2023-01-12T21:43:09.089Z,16.50
2023-01-12T21:45:54.717Z,17.00
2023-01-12T21:48:40.024Z,16.45
2023-01-12T21:51:25.526Z,18.38
2023-01-12T21:54:11.313Z,18.35
2023-01-12T21:56:56.926Z,26.77
2023-01-12T21:59:42.340Z,18.35
2023-01-12T22:02:27.875Z,16.58
2023-01-12T22:05:13.853Z,24.30
2023-01-12T22:07:59.753Z,18.05
2023-01-12T22:10:45.104Z,19.33
2023-01-12T22:13:30.452Z,24.23
2023-01-12T22:16:16.495Z,18.92
2023-01-12T22:19:03.783Z,23.35
2023-01-12T22:21:50.003Z,24.25
2023-01-12T22:24:35.423Z,23.50
2023-01-12T22:27:21.029Z,27.30
2023-01-12T22:30:07.441Z,29.05
2023-01-12T22:32:57.107Z,31.40
2023-01-12T22:35:42.248Z,26.30
2023-01-12T22:38:28.126Z,31.90
2023-01-12T22:41:13.776Z,30.48
2023-01-12T22:43:59.513Z,38.90
2023-01-12T22:46:44.891Z,31.23
2023-01-12T22:49:30.131Z,32.90
2023-01-12T22:52:15.750Z,36.20
2023-01-12T22:55:01.179Z,36.38
2023-01-12T22:57:46.684Z,37.58
2023-01-12T23:00:32.007Z,32.00
2023-01-12T23:03:17.705Z,35.92
2023-01-12T23:06:04.183Z,30.13
2023-01-12T23:08:50.391Z,35.15
2023-01-12T23:11:36.021Z,26.27
2023-01-12T23:14:21.541Z,29.73
2023-01-12T23:17:07.080Z,25.67
2023-01-12T23:19:52.727Z,31.40
2023-01-12T23:22:39.275Z,33.50
2023-01-12T23:25:24.523Z,33.22
2023-01-12T23:28:11.555Z,26.23
2023-01-12T23:31:12.553Z,31.23
2023-01-12T23:33:58.000Z,32.88
2023-01-12T23:36:43.087Z,29.02
2023-01-12T23:39:28.731Z,25.25
2023-01-12T23:42:13.990Z,27.90
2023-01-12T23:44:59.569Z,22.20
2023-01-12T23:47:45.317Z,27.38
2023-01-12T23:50:30.984Z,23.25
2023-01-12T23:53:16.534Z,24.58
2023-01-12T23:56:11.346Z,23.35
2023-01-12T23:58:57.547Z,29.38
